Time;durP1;ratioP1;P1;durP2;ratioP2;P2;SDS_P1;SDS_P2;PMS_P1;PMS_P2;Temp;Humidity;BMP_temperature;BMP_pressure;BME280_temperature;BME280_humidity;BME280_pressure;Samples;Min_cycle;Max_cycle;Signal;HPM_P1;HPM_P2
2022/11/21 00:01:33;;;;;;;1.07;0.40;;;5.10;99.90;;;;;;5013245;28;20653;-78
2022/11/21 00:03:58;;;;;;;1.53;0.50;;;5.10;99.90;;;;;;5011705;28;20761;-77
2022/11/21 00:06:24;;;;;;;3.00;1.10;;;5.10;99.90;;;;;;5012952;28;20554;-77
2022/11/21 00:08:50;;;;;;;1.83;0.53;;;5.10;99.90;;;;;;5011807;28;20188;-77
2022/11/21 00:11:16;;;;;;;2.60;0.63;;;5.10;99.90;;;;;;5013096;28;20435;-76
2022/11/21 00:13:42;;;;;;;1.37;0.43;;;5.10;99.90;;;;;;4995308;28;20458;-77
2022/11/21 00:16:11;;;;;;;0.70;0.40;;;5.10;99.90;;;;;;5013217;28;20466;-80
2022/11/21 00:18:37;;;;;;;0.90;0.50;;;5.10;99.90;;;;;;4995595;28;20940;-84
2022/11/21 00:21:12;;;;;;;0.80;0.43;;;5.10;99.90;;;;;;5011437;28;20961;-80
2022/11/21 00:23:37;;;;;;;0.70;0.50;;;5.10;99.90;;;;;;5011396;28;20414;-80
2022/11/21 00:26:08;;;;;;;1.17;0.50;;;5.00;99.90;;;;;;4994910;28;20834;-80
2022/11/21 00:28:34;;;;;;;1.10;0.70;;;5.00;99.90;;;;;;5012602;28;20251;-79
2022/11/21 00:31:00;;;;;;;1.77;0.60;;;4.90;99.90;;;;;;5011031;28;20454;-80
2022/11/21 00:33:26;;;;;;;1.20;0.70;;;5.00;99.90;;;;;;4994843;28;20427;-80
2022/11/21 00:35:51;;;;;;;1.63;0.73;;;5.00;99.90;;;;;;4994909;28;20192;-80
2022/11/21 00:38:17;;;;;;;2.80;0.67;;;5.10;99.90;;;;;;5011272;28;20185;-80
2022/11/21 00:40:43;;;;;;;1.87;0.50;;;5.10;99.90;;;;;;5011340;28;20295;-80
2022/11/21 00:43:09;;;;;;;1.13;0.47;;;5.10;99.90;;;;;;5012119;28;20187;-80
2022/11/21 00:45:34;;;;;;;1.23;0.63;;;5.10;99.90;;;;;;5012720;28;20530;-80
2022/11/21 00:48:00;;;;;;;0.70;0.50;;;5.10;99.90;;;;;;4994777;28;20189;-80
2022/11/21 00:50:25;;;;;;;1.20;0.70;;;5.20;99.90;;;;;;5011098;28;20299;-80
2022/11/21 00:52:57;;;;;;;3.17;0.63;;;5.20;99.90;;;;;;5010974;28;20215;-80
2022/11/21 00:55:24;;;;;;;0.80;0.60;;;5.20;99.90;;;;;;5010044;28;20287;-80
2022/11/21 00:57:50;;;;;;;1.50;0.67;;;5.30;99.90;;;;;;5010739;28;20525;-80
2022/11/21 01:00:17;;;;;;;5.90;0.50;;;5.30;99.90;;;;;;4994419;28;20829;-79
2022/11/21 01:02:42;;;;;;;1.93;0.60;;;5.20;99.90;;;;;;5012108;28;21036;-78
2022/11/21 01:05:08;;;;;;;1.57;0.50;;;5.30;99.90;;;;;;5010818;28;20467;-80
2022/11/21 01:07:34;;;;;;;2.20;0.68;;;5.30;99.90;;;;;;5010643;28;20670;-79
2022/11/21 01:10:00;;;;;;;1.70;0.80;;;5.30;99.90;;;;;;5010646;28;20231;-79
2022/11/21 01:12:25;;;;;;;4.67;0.70;;;5.30;99.90;;;;;;4993842;28;20188;-79
2022/11/21 01:14:51;;;;;;;1.83;0.50;;;5.40;99.90;;;;;;5009903;28;20304;-79
2022/11/21 01:17:17;;;;;;;2.00;0.60;;;5.50;99.90;;;;;;4977407;28;20283;-79
2022/11/21 01:19:43;;;;;;;1.20;0.60;;;5.50;99.90;;;;;;5011132;28;20241;-78
2022/11/21 01:22:08;;;;;;;0.80;0.50;;;5.50;99.90;;;;;;4993703;28;20242;-79
2022/11/21 01:24:34;;;;;;;0.70;0.50;;;5.60;99.90;;;;;;5011322;28;20415;-79
2022/11/21 01:26:59;;;;;;;2.07;0.80;;;5.60;99.90;;;;;;5009760;28;20192;-80
2022/11/21 01:29:26;;;;;;;1.77;0.60;;;5.70;99.90;;;;;;5009691;28;20288;-80
2022/11/21 01:31:52;;;;;;;1.50;0.70;;;5.70;99.90;;;;;;5009411;28;20707;-81
2022/11/21 01:34:18;;;;;;;3.23;0.90;;;5.80;99.90;;;;;;4993443;28;20196;-79
2022/11/21 01:36:43;;;;;;;2.77;0.90;;;5.80;99.90;;;;;;5010875;28;20649;-79
2022/11/21 01:39:10;;;;;;;2.17;1.00;;;5.80;99.90;;;;;;5010842;28;20189;-80
2022/11/21 01:41:44;;;;;;;2.53;0.70;;;5.80;99.90;;;;;;5009312;28;20535;-80
2022/11/21 01:44:21;;;;;;;1.43;0.70;;;5.80;99.90;;;;;;4993200;28;20531;-80
2022/11/21 01:46:48;;;;;;;2.50;0.70;;;5.80;99.90;;;;;;5009185;28;20424;-80
2022/11/21 01:49:21;;;;;;;1.53;0.60;;;5.80;99.90;;;;;;5009330;28;20415;-80
2022/11/21 01:51:53;;;;;;;3.30;0.60;;;5.80;99.90;;;;;;5009140;28;20424;-80
2022/11/21 01:54:26;;;;;;;5.90;0.60;;;5.90;99.90;;;;;;5010545;28;20392;-80
2022/11/21 01:57:07;;;;;;;4.10;0.77;;;5.90;99.90;;;;;;5009135;28;20516;-80
2022/11/21 01:59:44;;;;;;;2.17;0.90;;;5.90;99.90;;;;;;5009021;28;20439;-80
2022/11/21 02:02:12;;;;;;;2.43;0.73;;;5.90;99.90;;;;;;4993125;28;21036;-80
2022/11/21 02:04:41;;;;;;;2.90;0.90;;;5.80;99.90;;;;;;4992921;28;20412;-80
2022/11/21 02:07:07;;;;;;;5.25;1.10;;;5.70;99.90;;;;;;4976360;28;20952;-80
2022/11/21 02:09:36;;;;;;;1.80;0.67;;;5.60;99.90;;;;;;4992658;28;20229;-81
2022/11/21 02:12:09;;;;;;;1.60;0.70;;;5.60;99.90;;;;;;4993560;28;20438;-80
2022/11/21 02:14:37;;;;;;;3.93;1.13;;;5.60;99.90;;;;;;4992522;28;20420;-80
2022/11/21 02:17:06;;;;;;;9.40;0.90;;;5.60;99.90;;;;;;5012867;28;20451;-81
2022/11/21 02:19:49;;;;;;;3.33;1.00;;;5.50;99.90;;;;;;4993481;28;20447;-81
2022/11/21 02:22:35;;;;;;;1.97;0.70;;;5.40;99.90;;;;;;5009225;28;20407;-81
2022/11/21 02:25:04;;;;;;;8.30;1.60;;;5.20;99.90;;;;;;5009238;28;20479;-81
2022/11/21 02:27:30;;;;;;;2.03;0.80;;;5.20;99.90;;;;;;4992466;28;20665;-80
2022/11/21 02:29:56;;;;;;;4.17;1.10;;;5.20;99.90;;;;;;4992900;28;20677;-80
2022/11/21 02:32:25;;;;;;;6.10;1.10;;;5.20;99.90;;;;;;5008666;28;20416;-80
2022/11/21 02:34:50;;;;;;;2.23;0.97;;;5.10;99.90;;;;;;4992512;28;20587;-80
2022/11/21 02:37:17;;;;;;;2.97;0.77;;;5.10;99.90;;;;;;5008462;28;20506;-80
2022/11/21 02:39:44;;;;;;;2.47;0.80;;;5.10;99.90;;;;;;5010457;28;20203;-81
2022/11/21 02:42:25;;;;;;;3.85;0.77;;;5.00;99.90;;;;;;4976654;28;20554;-81
2022/11/21 02:45:11;;;;;;;5.88;0.80;;;5.00;99.90;;;;;;5008615;28;20671;-80
2022/11/21 02:47:38;;;;;;;4.53;0.80;;;5.00;99.90;;;;;;5011138;28;20200;-80
2022/11/21 02:50:18;;;;;;;3.13;0.70;;;5.00;99.90;;;;;;5009622;28;20212;-79
2022/11/21 02:52:44;;;;;;;3.30;0.80;;;5.00;99.90;;;;;;5009458;28;20467;-79
2022/11/21 02:55:14;;;;;;;1.00;0.60;;;5.00;99.90;;;;;;4992774;28;20475;-80
2022/11/21 02:57:40;;;;;;;0.90;0.70;;;5.00;99.90;;;;;;5008907;28;20722;-79
2022/11/21 03:00:07;;;;;;;1.10;0.60;;;5.00;99.90;;;;;;5009322;28;20455;-79
2022/11/21 03:02:33;;;;;;;2.00;0.50;;;4.80;99.90;;;;;;5009827;28;21144;-80
2022/11/21 03:04:59;;;;;;;5.70;1.10;;;4.80;99.90;;;;;;5008437;28;20458;-79
2022/11/21 03:07:24;;;;;;;2.60;0.70;;;4.90;99.90;;;;;;4991834;28;20203;-80
2022/11/21 03:09:50;;;;;;;6.17;0.80;;;5.00;99.90;;;;;;4976208;28;20440;-80
2022/11/21 03:12:16;;;;;;;2.83;0.50;;;5.00;99.90;;;;;;4992354;28;20191;-80
2022/11/21 03:14:41;;;;;;;3.97;1.47;;;5.00;99.90;;;;;;4976234;28;20185;-81
2022/11/21 03:17:07;;;;;;;1.47;0.67;;;5.10;99.90;;;;;;5008391;28;20204;-79
2022/11/21 03:19:32;;;;;;;1.77;0.80;;;5.10;99.90;;;;;;4991897;28;20303;-79
2022/11/21 03:21:58;;;;;;;2.20;0.70;;;5.10;99.90;;;;;;5008727;28;20177;-77
2022/11/21 03:24:23;;;;;;;2.07;0.87;;;5.20;99.90;;;;;;5008565;28;20608;-77
2022/11/21 03:26:49;;;;;;;1.10;0.63;;;5.10;99.90;;;;;;5008652;28;20272;-77
2022/11/21 03:29:15;;;;;;;3.53;0.90;;;5.10;99.90;;;;;;5010078;28;20188;-77
2022/11/21 03:31:40;;;;;;;1.53;0.50;;;5.10;99.90;;;;;;5008672;28;20178;-77
2022/11/21 03:34:06;;;;;;;0.70;0.50;;;5.10;99.90;;;;;;5010061;28;20178;-77
2022/11/21 03:36:32;;;;;;;0.70;0.50;;;5.10;99.90;;;;;;5008500;28;20595;-79
2022/11/21 03:38:58;;;;;;;1.20;0.70;;;5.10;99.90;;;;;;5008154;28;20572;-78
2022/11/21 03:41:31;;;;;;;1.33;0.73;;;5.00;99.90;;;;;;5008215;28;20292;-80
2022/11/21 03:44:01;;;;;;;2.60;1.13;;;4.90;99.90;;;;;;5008486;28;20434;-80
2022/11/21 03:46:27;;;;;;;1.65;0.60;;;4.90;99.90;;;;;;5009795;28;20469;-80
2022/11/21 03:48:53;;;;;;;2.85;0.80;;;4.90;99.90;;;;;;5009133;28;20192;-78
2022/11/21 03:51:19;;;;;;;0.70;0.50;;;5.00;99.90;;;;;;5008747;28;20200;-79
2022/11/21 03:53:45;;;;;;;0.88;0.45;;;5.00;99.90;;;;;;5013638;28;20179;-80
2022/11/21 03:56:11;;;;;;;1.40;0.47;;;5.00;99.90;;;;;;5019381;28;20213;-79
2022/11/21 03:58:37;;;;;;;1.90;0.50;;;5.00;99.90;;;;;;5014276;28;20420;-78
2022/11/21 04:01:03;;;;;;;1.17;0.40;;;5.10;99.90;;;;;;5013294;28;20446;-78
2022/11/21 04:03:29;;;;;;;1.03;0.50;;;5.00;99.90;;;;;;5015182;28;20255;-78
2022/11/21 04:05:55;;;;;;;0.80;0.50;;;5.00;99.90;;;;;;5020148;28;21050;-78
2022/11/21 04:08:21;;;;;;;1.07;0.50;;;5.10;99.90;;;;;;4989842;28;20633;-78
2022/11/21 04:10:50;;;;;;;0.77;0.50;;;5.10;99.90;;;;;;5011905;28;20208;-78
2022/11/21 04:13:16;;;;;;;0.90;0.40;;;5.10;99.90;;;;;;5011440;28;20189;-79
2022/11/21 04:15:43;;;;;;;0.70;0.30;;;5.10;99.90;;;;;;5010530;28;20435;-78
2022/11/21 04:18:09;;;;;;;1.03;0.40;;;5.20;99.90;;;;;;5011985;28;20941;-79
2022/11/21 04:20:34;;;;;;;0.70;0.40;;;5.20;99.90;;;;;;5011392;28;20448;-78
2022/11/21 04:23:00;;;;;;;1.93;0.30;;;5.20;99.90;;;;;;5009499;28;20970;-80
2022/11/21 04:25:26;;;;;;;3.17;0.63;;;5.20;99.90;;;;;;5008427;28;20211;-78
2022/11/21 04:27:56;;;;;;;2.10;0.30;;;5.20;99.90;;;;;;5009797;28;20251;-78
2022/11/21 04:30:21;;;;;;;0.60;0.30;;;5.10;99.90;;;;;;5010278;28;20201;-78
2022/11/21 04:32:50;;;;;;;0.87;0.63;;;5.10;99.90;;;;;;5013247;28;20426;-77
2022/11/21 04:35:16;;;;;;;1.87;0.40;;;5.10;99.90;;;;;;5011446;28;20560;-76
2022/11/21 04:37:41;;;;;;;0.70;0.40;;;5.10;99.90;;;;;;4995348;28;20439;-77
2022/11/21 04:40:07;;;;;;;0.60;0.30;;;5.00;99.90;;;;;;5011351;28;20965;-76
2022/11/21 04:42:33;;;;;;;1.00;0.40;;;5.10;99.90;;;;;;5012639;28;20203;-77
2022/11/21 04:44:58;;;;;;;0.73;0.40;;;5.10;99.90;;;;;;5011265;28;20463;-78
2022/11/21 04:47:24;;;;;;;0.70;0.33;;;5.10;99.90;;;;;;5012527;28;20186;-76
2022/11/21 04:49:50;;;;;;;1.07;0.37;;;5.10;99.90;;;;;;5012337;28;20216;-76
2022/11/21 04:52:15;;;;;;;0.60;0.33;;;5.00;99.90;;;;;;5012807;28;20186;-84
2022/11/21 04:54:41;;;;;;;0.70;0.30;;;5.00;99.90;;;;;;4980423;28;20197;-85
2022/11/21 04:57:06;;;;;;;0.60;0.30;;;5.10;99.90;;;;;;4980570;28;20193;-85
2022/11/21 04:59:32;;;;;;;0.60;0.30;;;5.00;99.90;;;;;;5014629;28;20212;-84
2022/11/21 05:01:58;;;;;;;0.60;0.40;;;5.10;99.90;;;;;;4980714;28;20192;-84
2022/11/21 05:04:23;;;;;;;1.30;0.30;;;5.00;99.90;;;;;;4979352;28;20189;-84
2022/11/21 05:06:49;;;;;;;0.60;0.30;;;5.00;99.90;;;;;;4978335;28;20255;-84
2022/11/21 05:09:14;;;;;;;0.60;0.40;;;5.00;99.90;;;;;;4977996;28;20192;-84
2022/11/21 05:14:25;;;;;;;0.60;0.30;;;4.90;99.90;;;;;;5013131;28;20311;-84
2022/11/21 05:16:51;;;;;;;0.60;0.30;;;4.90;99.90;;;;;;4994895;28;20809;-85
2022/11/21 05:19:17;;;;;;;0.60;0.40;;;4.90;99.90;;;;;;4993747;28;20193;-82
2022/11/21 05:21:43;;;;;;;0.70;0.40;;;4.90;99.90;;;;;;4977313;28;20480;-83
2022/11/21 05:24:09;;;;;;;1.03;0.40;;;4.90;99.90;;;;;;4977931;28;20975;-83
2022/11/21 05:26:34;;;;;;;0.80;0.30;;;4.90;99.90;;;;;;4993826;28;20478;-83
2022/11/21 05:29:00;;;;;;;0.60;0.30;;;4.90;99.90;;;;;;5009462;28;20183;-82
2022/11/21 05:31:26;;;;;;;0.97;0.37;;;5.00;99.90;;;;;;4976579;28;20200;-83
2022/11/21 05:33:51;;;;;;;0.60;0.30;;;5.00;99.90;;;;;;5009379;28;20188;-83
2022/11/21 05:36:17;;;;;;;1.33;0.60;;;5.00;99.90;;;;;;4993240;28;20189;-84
2022/11/21 05:38:43;;;;;;;0.60;0.30;;;5.00;99.90;;;;;;4978116;28;20185;-84
2022/11/21 05:41:08;;;;;;;0.90;0.50;;;5.10;99.90;;;;;;5010360;28;20237;-84
2022/11/21 05:43:45;;;;;;;0.70;0.30;;;5.00;99.90;;;;;;4977649;28;20196;-84
2022/11/21 05:46:16;;;;;;;0.60;0.30;;;5.10;99.90;;;;;;4981271;28;20337;-84
2022/11/21 05:48:42;;;;;;;0.73;0.33;;;5.20;99.90;;;;;;5010598;28;20424;-85
2022/11/21 05:51:08;;;;;;;1.00;0.40;;;5.10;99.90;;;;;;5009830;28;20465;-84
2022/11/21 05:53:34;;;;;;;2.93;0.40;;;5.00;99.90;;;;;;4977801;28;20303;-85
2022/11/21 05:56:05;;;;;;;0.63;0.37;;;5.10;99.90;;;;;;5010302;28;20812;-84
2022/11/21 05:58:31;;;;;;;2.03;0.40;;;5.20;99.90;;;;;;5010540;28;20423;-84
2022/11/21 06:00:58;;;;;;;0.70;0.40;;;5.10;99.90;;;;;;4993095;28;20494;-84
2022/11/21 06:03:27;;;;;;;2.30;0.70;;;5.10;99.90;;;;;;4994567;28;20189;-84
2022/11/21 06:06:08;;;;;;;0.60;0.40;;;5.10;99.90;;;;;;4994670;28;20475;-85
2022/11/21 06:08:40;;;;;;;0.60;0.30;;;5.20;99.90;;;;;;5010604;28;20412;-83
2022/11/21 06:11:08;;;;;;;1.00;0.50;;;5.20;99.90;;;;;;5008930;28;20444;-83
2022/11/21 06:13:35;;;;;;;4.00;3.07;;;5.30;99.90;;;;;;4976604;28;20428;-84
2022/11/21 06:16:02;;;;;;;1.33;0.53;;;5.40;99.90;;;;;;4991991;28;20452;-83
2022/11/21 06:18:29;;;;;;;1.75;1.17;;;5.20;99.90;;;;;;4992176;28;20448;-85
2022/11/21 06:21:04;;;;;;;0.60;0.30;;;5.30;99.90;;;;;;5008544;28;20262;-84
2022/11/21 06:23:30;;;;;;;1.77;0.70;;;5.10;99.90;;;;;;5009061;28;20456;-84
2022/11/21 06:25:57;;;;;;;1.03;0.43;;;5.20;99.90;;;;;;4992002;28;20472;-83
2022/11/21 06:28:24;;;;;;;0.80;0.40;;;5.20;99.90;;;;;;5009655;28;21014;-84
2022/11/21 06:30:50;;;;;;;2.30;0.50;;;5.30;99.90;;;;;;4979225;28;20220;-85
2022/11/21 06:33:17;;;;;;;0.70;0.40;;;5.20;99.90;;;;;;5011305;28;20439;-84
2022/11/21 06:35:43;;;;;;;2.40;0.80;;;5.20;99.90;;;;;;5008371;28;20802;-84
2022/11/21 06:38:08;;;;;;;0.70;0.37;;;5.20;99.90;;;;;;4976524;28;20428;-83
2022/11/21 06:40:34;;;;;;;2.83;1.27;;;5.20;99.90;;;;;;4978052;28;20219;-84
2022/11/21 06:43:00;;;;;;;2.53;0.67;;;5.30;99.90;;;;;;4977049;28;20220;-84
2022/11/21 06:45:26;;;;;;;3.88;0.70;;;5.30;99.90;;;;;;4994057;28;20220;-84
2022/11/21 06:47:51;;;;;;;5.37;0.60;;;5.30;99.90;;;;;;5008402;28;20184;-84
2022/11/21 06:50:17;;;;;;;3.00;0.70;;;5.40;99.90;;;;;;4991706;28;20216;-83
2022/11/21 06:52:43;;;;;;;1.93;0.90;;;5.30;99.90;;;;;;5006999;28;20293;-84
2022/11/21 06:55:09;;;;;;;1.33;0.60;;;5.40;99.90;;;;;;5007037;28;20194;-83
2022/11/21 06:57:35;;;;;;;5.67;0.70;;;5.30;99.90;;;;;;4991046;28;20199;-83
2022/11/21 07:00:02;;;;;;;2.13;0.60;;;5.30;99.90;;;;;;5007341;28;20444;-83
2022/11/21 07:02:27;;;;;;;2.57;0.70;;;5.20;99.90;;;;;;4975437;28;20439;-83
2022/11/21 07:04:53;;;;;;;8.50;5.10;;;5.20;99.90;;;;;;4974804;28;20472;-84
2022/11/21 07:07:19;;;;;;;4.63;1.57;;;5.30;99.90;;;;;;4990757;28;20247;-83
2022/11/21 07:09:46;;;;;;;1.90;0.90;;;5.30;99.90;;;;;;4990023;28;20212;-83
2022/11/21 07:14:56;;;;;;;2.23;1.17;;;5.30;99.90;;;;;;5010044;28;20434;-83
2022/11/21 07:17:22;;;;;;;12.97;2.10;;;5.40;99.90;;;;;;4994576;28;20452;-83
2022/11/21 07:19:47;;;;;;;3.50;0.70;;;5.40;99.90;;;;;;4990800;28;20208;-83
2022/11/21 07:22:13;;;;;;;4.30;0.80;;;5.40;99.90;;;;;;4991965;28;20196;-82
2022/11/21 07:24:38;;;;;;;3.83;0.87;;;5.40;99.90;;;;;;5008909;28;20181;-83
2022/11/21 07:27:04;;;;;;;4.90;0.90;;;5.40;99.90;;;;;;5008544;28;20238;-83
2022/11/21 07:29:29;;;;;;;3.20;1.10;;;5.60;99.90;;;;;;5010434;28;20209;-83
2022/11/21 07:31:55;;;;;;;6.50;2.87;;;5.40;99.90;;;;;;4977767;28;20277;-83
2022/11/21 07:34:21;;;;;;;2.10;0.90;;;5.70;99.90;;;;;;4993212;28;20216;-84
2022/11/21 07:36:46;;;;;;;6.27;0.80;;;5.50;99.90;;;;;;4994068;28;20181;-83
2022/11/21 07:39:12;;;;;;;4.03;0.70;;;5.60;99.90;;;;;;4992724;28;20785;-84
2022/11/21 07:41:38;;;;;;;3.70;0.90;;;5.50;99.90;;;;;;5008035;28;20240;-83
2022/11/21 07:44:03;;;;;;;4.67;0.93;;;5.50;99.90;;;;;;4976130;28;20201;-83
2022/11/21 07:46:29;;;;;;;3.60;0.80;;;5.60;99.90;;;;;;4975228;28;20217;-82
2022/11/21 07:48:54;;;;;;;4.00;1.23;;;5.60;99.90;;;;;;4990792;28;20189;-83
2022/11/21 07:51:20;;;;;;;2.43;1.43;;;5.70;99.90;;;;;;4990496;28;20245;-83
2022/11/21 07:53:46;;;;;;;2.03;1.03;;;5.70;99.90;;;;;;4974553;28;20564;-83
2022/11/21 07:56:11;;;;;;;2.60;0.83;;;5.60;99.90;;;;;;5006805;28;20189;-83
2022/11/21 07:58:37;;;;;;;3.93;0.80;;;5.60;99.90;;;;;;4973985;28;20734;-82
2022/11/21 08:01:06;;;;;;;3.67;0.90;;;5.60;99.90;;;;;;4973596;28;20213;-83
2022/11/21 08:03:33;;;;;;;3.03;0.93;;;5.70;99.90;;;;;;4990379;28;20197;-83
2022/11/21 08:06:03;;;;;;;3.07;1.23;;;5.90;99.90;;;;;;5011446;28;20569;-83
2022/11/21 08:08:29;;;;;;;4.17;1.00;;;6.50;99.90;;;;;;4994092;28;20424;-83
2022/11/21 08:10:55;;;;;;;6.10;1.90;;;7.20;99.90;;;;;;4994317;28;20462;-82
2022/11/21 08:13:21;;;;;;;10.83;6.50;;;7.60;99.90;;;;;;5011055;28;20427;-84
2022/11/21 08:15:46;;;;;;;8.87;3.37;;;8.10;99.90;;;;;;5010937;28;20931;-83
2022/11/21 08:18:15;;;;;;;6.03;1.50;;;8.30;99.90;;;;;;5010290;28;20456;-83
2022/11/21 08:20:41;;;;;;;29.07;19.10;;;8.40;99.90;;;;;;5010398;28;20288;-85
2022/11/21 08:23:09;;;;;;;28.90;14.00;;;8.40;99.90;;;;;;5010994;28;20460;-83
2022/11/21 08:25:39;;;;;;;29.33;16.83;;;8.40;99.90;;;;;;4994196;28;20507;-83
2022/11/21 08:28:06;;;;;;;6.37;2.23;;;8.20;99.90;;;;;;4978753;28;20428;-83
2022/11/21 08:30:33;;;;;;;5.37;1.27;;;8.10;99.90;;;;;;4994220;28;20898;-83
2022/11/21 08:32:59;;;;;;;7.00;2.57;;;8.10;99.90;;;;;;5009673;28;20770;-83
2022/11/21 08:35:25;;;;;;;2.27;1.50;;;9.00;99.90;;;;;;4993562;28;20446;-83
2022/11/21 08:37:58;;;;;;;4.90;1.10;;;10.30;99.90;;;;;;4993864;28;20443;-83
2022/11/21 08:40:26;;;;;;;5.97;1.53;;;11.60;99.90;;;;;;4993617;28;20821;-83
2022/11/21 08:43:06;;;;;;;3.07;1.50;;;12.70;99.90;;;;;;4993678;28;20434;-83
2022/11/21 08:45:33;;;;;;;4.47;1.40;;;12.80;99.40;;;;;;5009673;28;20463;-82
2022/11/21 08:47:59;;;;;;;3.10;0.80;;;13.60;97.40;;;;;;5011839;28;20466;-82
2022/11/21 08:50:26;;;;;;;7.73;1.53;;;13.80;94.70;;;;;;5009432;28;20484;-83
2022/11/21 08:52:52;;;;;;;3.23;1.00;;;12.90;96.90;;;;;;5010059;28;20188;-83
2022/11/21 08:55:18;;;;;;;2.80;1.30;;;12.40;96.20;;;;;;5010348;28;20450;-81
2022/11/21 08:57:44;;;;;;;6.03;1.20;;;12.40;96.20;;;;;;5010577;28;20552;-84
2022/11/21 09:00:13;;;;;;;4.80;1.23;;;12.30;97.70;;;;;;4993755;28;20227;-83
2022/11/21 09:02:39;;;;;;;4.40;0.90;;;11.90;97.30;;;;;;5011071;28;20737;-83
2022/11/21 09:05:05;;;;;;;6.27;1.17;;;11.60;96.30;;;;;;5010105;28;20463;-83
2022/11/21 09:07:31;;;;;;;5.03;1.30;;;11.20;96.70;;;;;;4994101;28;20184;-83
2022/11/21 09:09:57;;;;;;;4.30;1.40;;;11.10;99.00;;;;;;4993355;28;20874;-82
2022/11/21 09:12:22;;;;;;;5.90;1.40;;;11.00;99.50;;;;;;4994400;28;20653;-83
2022/11/21 09:20:16;;;;;;;6.63;1.30;;;10.60;99.90;;;;;;4995549;28;20649;-83
2022/11/21 09:22:41;;;;;;;15.93;1.30;;;10.20;99.90;;;;;;4992486;28;21010;-82
2022/11/21 09:25:07;;;;;;;2.60;1.10;;;9.90;99.90;;;;;;5008448;28;20211;-82
2022/11/21 09:27:33;;;;;;;6.27;1.50;;;9.50;99.90;;;;;;4992339;28;20189;-83
2022/11/21 09:29:58;;;;;;;3.33;1.10;;;9.20;99.90;;;;;;4994424;28;20234;-84
2022/11/21 09:32:24;;;;;;;4.07;1.50;;;8.90;99.90;;;;;;5011658;28;20529;-82
2022/11/21 09:34:49;;;;;;;4.57;1.30;;;8.80;99.90;;;;;;4978155;28;20187;-83
2022/11/21 09:37:15;;;;;;;3.53;1.20;;;8.60;99.90;;;;;;4977469;28;20183;-82
2022/11/21 09:39:41;;;;;;;3.90;1.23;;;8.60;99.90;;;;;;4993428;28;20210;-83
2022/11/21 09:42:46;;;;;;;2.23;0.80;;;8.50;99.90;;;;;;5013130;28;20732;-83
2022/11/21 09:45:18;;;;;;;2.17;0.83;;;8.20;99.90;;;;;;5010711;28;20320;-83
2022/11/21 09:47:48;;;;;;;7.03;1.30;;;8.10;99.90;;;;;;5010163;28;20428;-82
2022/11/21 09:50:13;;;;;;;2.33;1.03;;;9.20;99.90;;;;;;5013672;28;20448;-83
2022/11/21 09:52:39;;;;;;;2.23;0.80;;;9.20;99.90;;;;;;5010915;28;20551;-83
2022/11/21 09:55:22;;;;;;;4.70;1.30;;;9.50;99.90;;;;;;5011632;28;20240;-82
2022/11/21 09:57:49;;;;;;;2.17;1.00;;;9.80;99.90;;;;;;5010103;28;20253;-82
2022/11/21 10:00:24;;;;;;;6.20;1.07;;;9.70;99.90;;;;;;5009742;28;20989;-83
2022/11/21 10:02:51;;;;;;;3.90;0.97;;;9.50;99.90;;;;;;4992747;28;20799;-83
2022/11/21 10:05:24;;;;;;;3.80;0.90;;;9.20;99.90;;;;;;4992288;28;20465;-82
2022/11/21 10:07:53;;;;;;;5.60;1.67;;;8.70;99.90;;;;;;5008820;28;20420;-81
2022/11/21 10:10:24;;;;;;;4.00;0.70;;;8.70;99.90;;;;;;4992682;28;20454;-82
2022/11/21 10:13:28;;;;;;;1.00;0.80;;;8.80;99.90;;;;;;5007647;28;20773;-82
2022/11/21 10:16:12;;;;;;;3.40;0.90;;;11.30;99.90;;;;;;4956915;28;20453;-82
2022/11/21 10:18:52;;;;;;;4.53;0.80;;;13.10;98.40;;;;;;5007247;28;20447;-82
2022/11/21 10:21:50;;;;;;;5.03;1.10;;;15.20;94.70;;;;;;5007399;28;20506;-82
2022/11/21 10:24:24;;;;;;;1.57;0.60;;;16.60;91.00;;;;;;5008516;28;20509;-82
2022/11/21 10:27:15;;;;;;;6.50;1.17;;;16.60;78.30;;;;;;5008552;28;20467;-82
2022/11/21 10:29:49;;;;;;;7.70;1.43;;;16.90;80.60;;;;;;5007973;28;20428;-81
2022/11/21 10:32:26;;;;;;;4.27;1.10;;;17.60;79.90;;;;;;5008720;28;20420;-81
2022/11/21 10:34:56;;;;;;;1.97;1.00;;;17.00;72.50;;;;;;5009750;28;20868;-82
2022/11/21 10:37:28;;;;;;;2.37;1.17;;;15.80;72.70;;;;;;5007467;28;20455;-82
2022/11/21 10:39:55;;;;;;;2.60;1.03;;;16.50;80.20;;;;;;5008874;28;20920;-82
2022/11/21 10:42:34;;;;;;;3.10;1.00;;;16.70;78.60;;;;;;4975240;28;20873;-82
2022/11/21 10:45:17;;;;;;;7.50;1.20;;;16.40;77.00;;;;;;5007533;28;20461;-82
2022/11/21 10:47:47;;;;;;;3.37;1.27;;;16.10;78.70;;;;;;4993336;28;20468;-82
2022/11/21 10:50:31;;;;;;;3.77;0.97;;;17.40;79.30;;;;;;4975711;28;20476;-81
2022/11/21 10:54:31;;;;;;;2.70;1.13;;;17.70;76.10;;;;;;5008934;28;20429;-82
2022/11/21 10:55:59;;;;;;;5.13;1.33;;;18.60;72.20;;;;;;5008648;28;20983;-82
2022/11/21 10:58:35;;;;;;;5.53;2.00;;;18.00;72.70;;;;;;5006902;28;20456;-82
2022/11/21 11:01:01;;;;;;;1.57;0.90;;;17.50;72.30;;;;;;4990715;28;20446;-83
2022/11/21 11:03:28;;;;;;;3.13;1.00;;;16.50;73.50;;;;;;4995126;28;20524;-82
2022/11/21 11:05:58;;;;;;;5.47;1.33;;;15.40;75.10;;;;;;4993585;28;20710;-82
2022/11/21 11:08:26;;;;;;;7.73;1.03;;;14.90;78.00;;;;;;5008708;28;20500;-82
2022/11/21 11:11:06;;;;;;;3.73;1.00;;;14.40;79.50;;;;;;5006909;28;20502;-82
2022/11/21 11:13:35;;;;;;;3.50;1.10;;;13.70;81.00;;;;;;5007493;28;21110;-82
2022/11/21 11:16:09;;;;;;;3.53;1.30;;;13.30;82.40;;;;;;4990681;28;20987;-85
2022/11/21 11:18:39;;;;;;;9.73;1.70;;;13.40;85.90;;;;;;5006717;28;20452;-83
2022/11/21 11:21:14;;;;;;;2.73;1.23;;;13.00;83.70;;;;;;5006778;28;20888;-84
2022/11/21 11:23:40;;;;;;;3.20;0.77;;;12.60;86.80;;;;;;5006791;28;20487;-84
2022/11/21 11:26:27;;;;;;;3.47;1.00;;;12.60;86.80;;;;;;5006996;28;20464;-84
2022/11/21 11:29:24;;;;;;;2.13;0.97;;;12.20;86.40;;;;;;5006751;28;20972;-84
2022/11/21 11:31:52;;;;;;;4.30;1.30;;;12.40;87.50;;;;;;5007945;28;20408;-84
2022/11/21 11:34:18;;;;;;;6.03;1.33;;;12.30;89.40;;;;;;5006650;28;20434;-84
2022/11/21 11:36:53;;;;;;;3.00;1.40;;;12.90;90.60;;;;;;5006497;28;20416;-84
2022/11/21 11:39:24;;;;;;;3.23;1.20;;;13.00;88.70;;;;;;5007039;28;20415;-83
2022/11/21 11:48:07;;;;;;;3.00;1.20;;;12.10;87.10;;;;;;5013941;28;20419;-81
2022/11/21 11:50:54;;;;;;;5.40;1.27;;;11.90;87.30;;;;;;5010923;28;20437;-81
2022/11/21 11:53:31;;;;;;;5.30;1.20;;;11.90;87.30;;;;;;5011160;28;20910;-81
2022/11/21 11:56:24;;;;;;;3.73;1.23;;;12.40;89.70;;;;;;5010879;28;20415;-81
2022/11/21 11:58:56;;;;;;;3.07;1.17;;;12.30;90.20;;;;;;5011773;28;20458;-81
2022/11/21 12:01:52;;;;;;;1.90;1.00;;;12.00;90.20;;;;;;5011018;28;20446;-81
2022/11/21 12:04:20;;;;;;;5.83;1.30;;;11.80;91.00;;;;;;5012325;28;20453;-81
2022/11/21 12:07:13;;;;;;;3.87;0.90;;;11.50;90.50;;;;;;5013048;28;20472;-81
2022/11/21 12:10:11;;;;;;;2.80;1.30;;;11.30;91.20;;;;;;5010847;28;20952;-81
2022/11/21 12:12:48;;;;;;;5.40;1.10;;;10.90;91.70;;;;;;5013152;28;20491;-82
2022/11/21 12:15:50;;;;;;;3.83;1.20;;;10.70;92.20;;;;;;5012837;28;20414;-82
2022/11/21 12:18:18;;;;;;;3.87;1.10;;;10.60;94.00;;;;;;4996137;28;20449;-81
2022/11/21 12:20:56;;;;;;;5.20;1.17;;;10.10;93.50;;;;;;5011179;28;20451;-82
2022/11/21 12:23:27;;;;;;;2.10;0.77;;;10.00;94.80;;;;;;5011675;28;20432;-82
2022/11/21 12:25:55;;;;;;;2.37;0.87;;;10.40;97.20;;;;;;4980370;28;20469;-80
2022/11/21 12:28:41;;;;;;;2.63;0.90;;;10.50;95.60;;;;;;5012120;28;20440;-82
2022/11/21 12:31:15;;;;;;;6.93;1.20;;;10.30;95.80;;;;;;5011716;28;20945;-82
2022/11/21 12:33:56;;;;;;;2.30;1.27;;;10.10;95.70;;;;;;5011601;28;20515;-82
2022/11/21 12:36:43;;;;;;;11.23;1.30;;;9.90;96.90;;;;;;5013312;28;20468;-81
2022/11/21 12:39:17;;;;;;;5.10;0.83;;;9.60;94.40;;;;;;5012516;28;20510;-81
2022/11/21 12:44:40;;;;;;;6.10;0.97;;;9.70;94.10;;;;;;5013115;28;20438;-83
2022/11/21 12:54:29;;;;;;;5.90;1.53;;;9.80;93.40;;;;;;5011737;28;20515;-82
2022/11/21 12:56:54;;;;;;;3.90;0.70;;;10.70;92.60;;;;;;5012639;28;20471;-81
2022/11/21 12:59:22;;;;;;;4.83;1.30;;;11.10;92.80;;;;;;5010978;28;20475;-81
2022/11/21 13:02:19;;;;;;;1.60;1.20;;;11.10;90.80;;;;;;4997093;28;20440;-82
2022/11/21 13:04:48;;;;;;;2.70;0.80;;;11.10;90.20;;;;;;5011641;28;20432;-82
2022/11/21 13:07:15;;;;;;;5.50;1.37;;;10.70;91.50;;;;;;5011217;28;20437;-82
2022/11/21 13:09:44;;;;;;;3.80;1.20;;;10.50;92.30;;;;;;4978180;28;20492;-82
2022/11/21 13:12:25;;;;;;;6.60;1.30;;;10.50;92.80;;;;;;4994249;28;20435;-82
2022/11/21 13:15:25;;;;;;;4.43;1.33;;;10.60;92.50;;;;;;4995484;28;20417;-81
2022/11/21 13:18:02;;;;;;;6.97;1.70;;;11.00;92.00;;;;;;5009999;28;21084;-81
2022/11/21 13:20:44;;;;;;;10.53;1.67;;;11.20;92.30;;;;;;5009959;28;20455;-81
2022/11/21 13:23:38;;;;;;;5.40;1.40;;;11.20;91.40;;;;;;5011376;28;20405;-82
2022/11/21 13:26:23;;;;;;;5.00;1.43;;;11.20;91.00;;;;;;5009793;28;20457;-80
2022/11/21 13:28:49;;;;;;;6.90;2.93;;;11.20;91.60;;;;;;5009774;28;20426;-81
2022/11/21 13:31:34;;;;;;;6.93;3.23;;;11.30;91.80;;;;;;5011450;28;20435;-81
2022/11/21 13:34:01;;;;;;;1.00;0.87;;;11.20;90.80;;;;;;5011319;28;20406;-81